Time;durP1;ratioP1;P1;durP2;ratioP2;P2;SDS_P1;SDS_P2;PMS_P1;PMS_P2;Temp;Humidity;BMP_temperature;BMP_pressure;BME280_temperature;BME280_humidity;BME280_pressure;Samples;Min_cycle;Max_cycle;Signal;HPM_P1;HPM_P2
2022/04/17 00:01:42;;;;;;;3.75;3.22;;;;;;;6.56;nan;102992.34;5052110;28;20051;-55
2022/04/17 00:04:10;;;;;;;4.95;3.10;;;;;;;6.52;nan;102984.38;5050824;28;20033;-54
2022/04/17 00:06:36;;;;;;;5.22;2.88;;;;;;;6.43;nan;102979.88;5051731;28;20055;-54
2022/04/17 00:09:01;;;;;;;3.95;3.00;;;;;;;6.45;nan;102988.63;5051638;28;20045;-53
2022/04/17 00:11:27;;;;;;;3.92;3.13;;;;;;;6.41;nan;102999.00;5052347;28;20029;-56
2022/04/17 00:13:54;;;;;;;3.92;3.50;;;;;;;5.98;nan;102917.09;5051562;28;20474;-57
2022/04/17 00:16:20;;;;;;;7.28;3.70;;;;;;;6.30;nan;102970.03;5050111;28;20043;-58
2022/04/17 00:18:45;;;;;;;5.30;3.30;;;;;;;6.32;nan;102973.56;5051668;28;20041;-55
2022/04/17 00:21:10;;;;;;;4.07;3.17;;;;;;;5.83;nan;102890.66;5051622;28;20466;-56
2022/04/17 00:23:35;;;;;;;3.67;3.10;;;;;;;6.21;nan;102956.78;5051420;28;20090;-57
2022/04/17 00:26:01;;;;;;;4.40;3.30;;;;;;;6.16;nan;102943.59;5066648;28;20061;-56
2022/04/17 00:28:27;;;;;;;4.22;3.38;;;;;;;6.23;nan;102952.47;5050001;28;20037;-56
2022/04/17 00:30:52;;;;;;;10.23;4.10;;;;;;;6.12;nan;102923.50;5051243;28;20036;-57
2022/04/17 00:33:17;;;;;;;4.97;4.00;;;;;;;6.44;nan;102968.56;5050993;28;20116;-53
2022/04/17 00:35:45;;;;;;;3.70;3.35;;;;;;;6.33;nan;102941.34;5051623;28;20033;-55
2022/04/17 00:38:10;;;;;;;3.95;3.33;;;;;;;6.16;nan;102914.84;5051479;28;20178;-56
2022/04/17 00:40:36;;;;;;;3.75;3.40;;;;;;;6.44;nan;102962.44;5051280;28;20517;-57
2022/04/17 00:43:01;;;;;;;5.63;3.88;;;;;;;6.03;nan;102904.13;5051295;28;20029;-55
2022/04/17 00:45:26;;;;;;;4.75;4.28;;;;;;;6.41;nan;102960.66;5051066;28;20474;-59
2022/04/17 00:47:52;;;;;;;9.30;4.20;;;;;;;6.43;nan;102972.03;5051212;28;20118;-55
2022/04/17 00:50:18;;;;;;;7.50;4.55;;;;;;;6.40;nan;102960.63;5051158;28;20120;-52
2022/04/17 00:52:45;;;;;;;5.80;4.88;;;;;;;6.47;nan;102975.59;5066382;28;20392;-53
2022/04/17 00:55:10;;;;;;;7.97;4.78;;;;;;;6.44;nan;102965.06;5066822;28;20037;-55
2022/04/17 00:57:36;;;;;;;5.35;4.60;;;;;;;6.30;nan;102943.88;5066200;28;20473;-55
2022/04/17 01:00:02;;;;;;;7.07;4.70;;;;;;;6.34;nan;102969.22;5051020;28;20087;-53
2022/04/17 01:02:28;;;;;;;5.55;4.28;;;;;;;6.24;nan;102949.00;5053186;28;20499;-58
2022/04/17 01:04:53;;;;;;;5.85;5.03;;;;;;;6.33;nan;102953.53;5053718;28;20060;-54
2022/04/17 01:07:21;;;;;;;7.43;5.05;;;;;;;6.27;nan;102954.28;5055058;28;20128;-54
2022/04/17 01:09:47;;;;;;;6.13;4.07;;;;;;;6.27;nan;102953.41;5070331;28;20048;-58
2022/04/17 01:12:13;;;;;;;7.38;5.70;;;;;;;5.93;nan;102899.56;5053578;28;20037;-56
2022/04/17 01:14:39;;;;;;;6.15;5.10;;;;;;;6.22;nan;102962.03;5054625;28;20048;-51
2022/04/17 01:17:05;;;;;;;7.40;5.20;;;;;;;5.83;nan;102880.22;5054729;28;20092;-54
2022/04/17 01:19:37;;;;;;;8.40;5.25;;;;;;;5.92;nan;102892.59;5054956;28;20093;-56
2022/04/17 01:22:05;;;;;;;7.40;5.20;;;;;;;6.17;nan;102963.69;5054686;28;20119;-56
2022/04/17 01:27:14;;;;;;;6.13;5.43;;;;;;;6.06;nan;102953.88;5054955;28;20583;-56
2022/04/17 01:29:40;;;;;;;6.47;5.43;;;;;;;6.05;nan;102952.09;5070490;28;20041;-58
2022/04/17 01:32:10;;;;;;;7.75;5.90;;;;;;;5.87;nan;102916.03;5069811;28;20393;-57
2022/04/17 01:34:36;;;;;;;7.38;5.85;;;;;;;5.81;nan;102910.63;5070007;28;20047;-56
2022/04/17 01:37:02;;;;;;;11.30;5.95;;;;;;;5.56;nan;102867.47;5069922;28;20040;-56
2022/04/17 01:39:28;;;;;;;7.15;5.53;;;;;;;5.63;nan;102874.56;5069874;28;20187;-55
2022/04/17 01:41:54;;;;;;;7.13;5.93;;;;;;;5.66;nan;102873.78;5054528;28;20452;-56
2022/04/17 01:44:21;;;;;;;7.53;6.47;;;;;;;5.62;nan;102877.16;5069962;28;20059;-54
2022/04/17 01:46:47;;;;;;;8.40;5.88;;;;;;;6.02;nan;102952.03;5054518;28;20093;-53
2022/04/17 01:49:15;;;;;;;6.30;5.10;;;;;;;5.93;nan;102944.00;5053295;28;20044;-55
2022/04/17 01:51:41;;;;;;;9.05;6.45;;;;;;;5.52;nan;102856.91;5054480;28;20086;-56
2022/04/17 01:54:10;;;;;;;10.32;6.55;;;;;;;5.83;nan;102908.06;5054308;28;20128;-53
2022/04/17 01:56:37;;;;;;;7.10;5.88;;;;;;;5.60;nan;102874.50;5054563;28;20033;-57
2022/04/17 01:59:04;;;;;;;7.60;5.57;;;;;;;5.56;nan;102866.59;5070085;28;20588;-56
2022/04/17 02:01:30;;;;;;;6.45;5.30;;;;;;;5.90;nan;102942.22;5069823;28;20107;-53
2022/04/17 02:03:55;;;;;;;8.85;6.53;;;;;;;5.88;nan;102932.59;5054386;28;20091;-56
2022/04/17 02:06:20;;;;;;;6.53;5.32;;;;;;;5.85;nan;102929.88;5054125;28;20284;-54
2022/04/17 02:08:46;;;;;;;6.75;5.47;;;;;;;5.49;nan;102869.91;5069691;28;20037;-52
2022/04/17 02:11:12;;;;;;;5.95;5.35;;;;;;;5.41;nan;102856.72;5054335;28;20040;-54
2022/04/17 02:13:38;;;;;;;5.63;5.13;;;;;;;5.88;nan;102937.81;5051918;28;20132;-54
2022/04/17 02:16:04;;;;;;;8.38;5.90;;;;;;;5.90;nan;102929.16;5054097;28;20171;-57
2022/04/17 02:18:29;;;;;;;9.00;6.70;;;;;;;5.87;nan;102926.47;5052466;28;20048;-53
2022/04/17 02:20:54;;;;;;;8.48;5.97;;;;;;;5.39;nan;102866.25;5053898;28;20370;-56
2022/04/17 02:23:20;;;;;;;6.40;5.72;;;;;;;5.89;nan;102934.38;5052712;28;20057;-53
2022/04/17 02:25:46;;;;;;;8.32;5.63;;;;;;;5.49;nan;102855.13;5054080;28;20104;-52
2022/04/17 02:28:13;;;;;;;7.22;5.68;;;;;;;5.50;nan;102851.69;5054018;28;20036;-55
2022/04/17 02:30:39;;;;;;;6.13;5.07;;;;;;;5.93;nan;102923.09;5053722;28;20036;-54
2022/04/17 02:33:04;;;;;;;7.60;5.63;;;;;;;5.61;nan;102865.81;5053455;28;20087;-54
2022/04/17 02:35:29;;;;;;;8.88;5.90;;;;;;;5.72;nan;102880.84;5068482;28;20044;-55
2022/04/17 02:37:55;;;;;;;6.22;5.63;;;;;;;5.87;nan;102920.34;5068928;28;20458;-53
2022/04/17 02:40:20;;;;;;;8.00;6.20;;;;;;;5.46;nan;102855.06;5068989;28;20120;-49
2022/04/17 02:42:45;;;;;;;7.20;6.40;;;;;;;5.83;nan;102918.53;5053542;28;20095;-54
2022/04/17 02:45:11;;;;;;;7.80;6.55;;;;;;;5.89;nan;102919.56;5054017;28;20033;-53
2022/04/17 02:47:42;;;;;;;8.88;6.72;;;;;;;5.44;nan;102851.53;5053621;28;20087;-53
2022/04/17 02:50:08;;;;;;;7.65;6.05;;;;;;;5.70;nan;102906.94;5053389;28;20062;-51
2022/04/17 02:52:34;;;;;;;8.20;6.32;;;;;;;5.75;nan;102912.28;5068648;28;20098;-53
2022/04/17 02:55:00;;;;;;;6.88;6.18;;;;;;;5.77;nan;102919.28;5053689;28;20044;-53
2022/04/17 02:57:26;;;;;;;9.10;6.82;;;;;;;5.37;nan;102843.56;5053680;28;20378;-55
2022/04/17 02:59:51;;;;;;;7.97;6.60;;;;;;;5.73;nan;102904.38;5052257;28;20037;-53
2022/04/17 03:07:44;;;;;;;10.15;6.95;;;;;;;5.67;nan;102909.47;5053366;28;20043;-55
2022/04/17 03:10:09;;;;;;;7.63;6.50;;;;;;;5.62;nan;102909.41;5054277;28;20037;-58
2022/04/17 03:12:38;;;;;;;7.38;6.65;;;;;;;5.53;nan;102913.53;5051948;28;20473;-55
2022/04/17 03:15:07;;;;;;;11.35;6.78;;;;;;;5.46;nan;102906.41;5068279;28;20136;-56
2022/04/17 03:17:32;;;;;;;8.20;6.68;;;;;;;5.41;nan;102911.56;5051690;28;20025;-54
2022/04/17 03:19:58;;;;;;;9.18;6.63;;;;;;;4.95;nan;102828.75;5068367;28;20058;-55
2022/04/17 03:22:24;;;;;;;8.40;6.38;;;;;;;5.22;nan;102885.91;5053231;28;20028;-53
2022/04/17 03:24:49;;;;;;;7.95;6.25;;;;;;;5.20;nan;102900.63;5068186;28;20044;-52
2022/04/17 03:27:14;;;;;;;8.35;6.93;;;;;;;5.13;nan;102898.75;5052744;28;20037;-54
2022/04/17 03:29:40;;;;;;;10.00;7.68;;;;;;;4.93;nan;102866.94;5052529;28;20110;-57
2022/04/17 03:32:05;;;;;;;8.55;6.85;;;;;;;4.60;nan;102834.88;5052689;28;20041;-54
2022/04/17 03:34:31;;;;;;;9.52;7.05;;;;;;;4.82;nan;102883.19;5052730;28;20048;-51
2022/04/17 03:36:58;;;;;;;8.40;6.65;;;;;;;4.69;nan;102883.78;5052665;28;20025;-54
2022/04/17 03:39:24;;;;;;;8.07;7.25;;;;;;;4.59;nan;102884.38;5052554;28;20033;-53
2022/04/17 03:41:50;;;;;;;8.90;7.75;;;;;;;4.54;nan;102890.38;5067560;28;20167;-54
2022/04/17 03:44:15;;;;;;;8.55;6.55;;;;;;;4.22;nan;102838.28;5051266;28;20075;-54
2022/04/17 03:46:41;;;;;;;9.13;6.97;;;;;;;4.29;nan;102874.09;5052366;28;20048;-55
2022/04/17 03:49:06;;;;;;;9.25;7.50;;;;;;;3.97;nan;102818.50;5052664;28;20051;-52
2022/04/17 03:51:32;;;;;;;10.93;7.25;;;;;;;3.91;nan;102828.81;5052516;28;20100;-54
2022/04/17 03:53:57;;;;;;;8.80;7.72;;;;;;;4.03;nan;102856.91;5067764;28;20075;-51
2022/04/17 03:56:23;;;;;;;7.45;6.75;;;;;;;3.74;nan;102819.63;5067891;28;20029;-51
2022/04/17 03:58:48;;;;;;;11.95;7.18;;;;;;;3.85;nan;102854.69;5050959;28;20045;-53
2022/04/17 04:01:13;;;;;;;10.43;7.28;;;;;;;3.82;nan;102847.63;5052455;28;20111;-54
2022/04/17 04:03:39;;;;;;;7.18;6.35;;;;;;;3.91;nan;102870.47;5067966;28;20374;-53
2022/04/17 04:06:04;;;;;;;8.15;6.75;;;;;;;3.91;nan;102876.53;5052338;28;20115;-55
2022/04/17 04:08:30;;;;;;;8.20;6.70;;;;;;;3.53;nan;102803.44;5052286;28;20063;-57
2022/04/17 04:10:55;;;;;;;7.88;6.43;;;;;;;3.89;nan;102865.22;5051965;28;20474;-54
2022/04/17 04:13:20;;;;;;;8.10;6.70;;;;;;;3.84;nan;102864.22;5052110;28;20040;-55
2022/04/17 04:15:46;;;;;;;8.57;6.68;;;;;;;3.83;nan;102859.84;5067388;28;20599;-56
2022/04/17 04:18:11;;;;;;;7.32;6.60;;;;;;;3.41;nan;102778.81;5052101;28;20060;-56
2022/04/17 04:20:36;;;;;;;8.48;6.35;;;;;;;3.86;nan;102851.22;5052148;28;20028;-57
2022/04/17 04:23:02;;;;;;;7.20;6.50;;;;;;;3.88;nan;102850.41;5052133;28;20122;-56
2022/04/17 04:25:27;;;;;;;10.27;6.88;;;;;;;3.63;nan;102798.50;5052009;28;20040;-56
2022/04/17 04:30:36;;;;;;;10.25;6.95;;;;;;;3.57;nan;102777.50;5052151;28;20044;-56
2022/04/17 04:33:01;;;;;;;8.93;6.47;;;;;;;3.95;nan;102844.53;5051847;28;20045;-54
2022/04/17 04:35:29;;;;;;;9.07;6.68;;;;;;;3.77;nan;102804.06;5052025;28;20037;-55
2022/04/17 04:37:54;;;;;;;7.15;6.43;;;;;;;3.63;nan;102762.06;5057263;28;20117;-55
2022/04/17 04:40:19;;;;;;;9.07;6.63;;;;;;;3.68;nan;102765.66;5057138;28;20061;-53
2022/04/17 04:42:45;;;;;;;8.48;6.55;;;;;;;4.15;nan;102849.38;5057943;28;20037;-56
2022/04/17 04:47:56;;;;;;;9.70;6.53;;;;;;;4.25;nan;102852.28;5030606;28;20198;-57
2022/04/17 04:50:21;;;;;;;7.38;6.13;;;;;;;3.93;nan;102786.31;5073895;28;20525;-52
2022/04/17 04:52:47;;;;;;;6.55;5.63;;;;;;;4.39;nan;102850.00;5056921;28;20036;-53
2022/04/17 04:55:12;;;;;;;7.10;5.80;;;;;;;4.44;nan;102850.97;5073771;28;20074;-58
2022/04/17 04:57:38;;;;;;;7.45;6.35;;;;;;;4.12;nan;102774.59;5058422;28;20437;-55
2022/04/17 05:00:07;;;;;;;8.57;6.70;;;;;;;4.19;nan;102781.75;5073867;28;20426;-58
2022/04/17 05:02:37;;;;;;;7.63;6.45;;;;;;;4.63;nan;102854.94;5058268;28;20043;-56
2022/04/17 05:05:04;;;;;;;8.68;6.20;;;;;;;4.61;nan;102841.88;5058180;28;20392;-57
2022/04/17 05:07:29;;;;;;;7.78;6.28;;;;;;;4.24;nan;102781.84;5057839;28;20537;-56
2022/04/17 05:09:54;;;;;;;8.98;6.80;;;;;;;4.65;nan;102845.41;5073166;28;20123;-57
2022/04/17 05:12:20;;;;;;;8.07;7.03;;;;;;;4.67;nan;102862.84;5057954;28;20393;-54
2022/04/17 05:14:45;;;;;;;7.88;6.47;;;;;;;4.65;nan;102851.50;5057908;28;20033;-55
2022/04/17 05:17:11;;;;;;;7.53;6.72;;;;;;;4.65;nan;102848.91;5057827;28;20039;-53
2022/04/17 05:19:39;;;;;;;8.05;6.50;;;;;;;4.46;nan;102816.31;5073472;28;20040;-53
2022/04/17 05:22:10;;;;;;;7.07;6.38;;;;;;;4.30;nan;102776.78;5073074;28;20036;-56
2022/04/17 05:24:36;;;;;;;7.80;6.40;;;;;;;4.53;nan;102812.97;5057910;28;20535;-55
2022/04/17 05:27:02;;;;;;;8.35;7.43;;;;;;;4.80;nan;102858.81;5058249;28;20394;-57
2022/04/17 05:29:27;;;;;;;7.40;6.68;;;;;;;4.77;nan;102837.88;5058205;28;20044;-58
2022/04/17 05:31:52;;;;;;;9.02;7.47;;;;;;;4.89;nan;102856.41;5057809;28;20079;-51
2022/04/17 05:34:18;;;;;;;9.57;7.20;;;;;;;4.94;nan;102862.63;5073373;28;20082;-53
2022/04/17 05:36:43;;;;;;;8.82;6.63;;;;;;;4.60;nan;102792.25;5073173;28;20036;-53
2022/04/17 05:39:08;;;;;;;18.27;7.72;;;;;;;4.99;nan;102851.44;5056463;28;20029;-52
2022/04/17 05:41:34;;;;;;;10.90;7.22;;;;;;;4.72;nan;102784.72;5057476;28;20055;-55
2022/04/17 05:44:00;;;;;;;8.57;6.88;;;;;;;5.18;nan;102864.91;5057822;28;20061;-54
2022/04/17 05:46:27;;;;;;;9.05;6.57;;;;;;;5.26;nan;102858.09;5057703;28;20040;-53
2022/04/17 05:48:53;;;;;;;8.43;6.80;;;;;;;5.36;nan;102867.91;5055784;28;20115;-54
2022/04/17 05:51:18;;;;;;;8.35;6.63;;;;;;;5.49;nan;102873.41;5054603;28;20148;-55
2022/04/17 05:53:44;;;;;;;8.75;6.68;;;;;;;5.18;nan;102802.25;5036409;28;20059;-60
2022/04/17 05:56:09;;;;;;;7.45;6.53;;;;;;;5.69;nan;102876.44;5053313;28;20044;-59
2022/04/17 05:58:35;;;;;;;9.95;7.05;;;;;;;5.76;nan;102859.13;5053254;28;20044;-52
2022/04/17 06:01:02;;;;;;;8.05;7.25;;;;;;;5.90;nan;102886.44;5053187;28;20155;-52
2022/04/17 06:03:28;;;;;;;9.90;6.78;;;;;;;5.68;nan;102823.31;5069502;28;20033;-54
2022/04/17 06:05:53;;;;;;;9.00;7.03;;;;;;;6.07;nan;102878.06;5054166;28;20500;-52
2022/04/17 06:08:19;;;;;;;7.45;6.40;;;;;;;6.21;nan;102884.47;5054067;28;20090;-55
2022/04/17 06:10:44;;;;;;;9.50;6.80;;;;;;;6.27;nan;102875.84;5054143;28;20103;-51
2022/04/17 06:13:10;;;;;;;6.82;6.13;;;;;;;6.25;nan;102856.59;5053079;28;20033;-54
2022/04/17 06:15:35;;;;;;;7.82;6.40;;;;;;;6.12;nan;102820.66;5054319;28;20029;-54
2022/04/17 06:18:00;;;;;;;7.95;7.05;;;;;;;6.58;nan;102882.44;5053954;28;20037;-53
2022/04/17 06:20:26;;;;;;;8.48;7.07;;;;;;;6.64;nan;102865.13;5052629;28;20036;-54
2022/04/17 06:22:51;;;;;;;8.38;6.57;;;;;;;6.46;nan;102817.72;5052624;28;20033;-51
2022/04/17 06:25:17;;;;;;;8.27;6.60;;;;;;;6.87;nan;102859.34;5054012;28;20043;-57
2022/04/17 06:27:45;;;;;;;7.60;6.65;;;;;;;7.03;nan;102862.22;5053952;28;20251;-55
2022/04/17 06:30:20;;;;;;;8.80;6.25;;;;;;;7.22;nan;102879.94;5053978;28;20473;-52
2022/04/17 06:32:46;;;;;;;8.02;6.88;;;;;;;7.26;nan;102860.81;5069366;28;20040;-57
2022/04/17 06:35:13;;;;;;;10.52;6.70;;;;;;;7.41;nan;102864.47;5053664;28;20037;-56
2022/04/17 06:38:01;;;;;;;10.10;6.55;;;;;;;7.63;nan;102884.84;5053680;28;20044;-55
2022/04/17 06:40:32;;;;;;;7.70;6.30;;;;;;;7.75;nan;102871.88;5053526;28;20044;-58
2022/04/17 06:43:05;;;;;;;7.93;6.22;;;;;;;7.51;nan;102817.44;5053962;28;20079;-56
2022/04/17 06:45:31;;;;;;;7.10;5.55;;;;;;;7.97;nan;102873.00;5051883;28;20492;-53
2022/04/17 06:47:57;;;;;;;7.95;5.45;;;;;;;7.79;nan;102816.00;5053471;28;20094;-57
2022/04/17 06:50:23;;;;;;;8.77;6.93;;;;;;;7.79;nan;102795.88;5053602;28;20132;-54
2022/04/17 06:52:51;;;;;;;8.38;6.20;;;;;;;8.37;nan;102865.56;5053341;28;20028;-59
2022/04/17 06:55:17;;;;;;;7.40;6.03;;;;;;;8.71;nan;102874.59;5053146;28;20516;-57
2022/04/17 06:57:48;;;;;;;6.85;6.18;;;;;;;9.13;nan;102857.34;5052852;28;20049;-56
2022/04/17 07:00:14;;;;;;;6.13;5.57;;;;;;;9.45;nan;102817.22;5052637;28;20052;-55
2022/04/17 07:02:40;;;;;;;8.13;6.00;;;;;;;10.37;nan;102860.38;5053221;28;20515;-53
2022/04/17 07:05:06;;;;;;;7.38;5.97;;;;;;;10.87;nan;102834.03;5068831;28;20037;-58
2022/04/17 07:07:32;;;;;;;7.97;6.18;;;;;;;11.68;nan;102857.47;5068865;28;20032;-56
2022/04/17 07:09:58;;;;;;;7.78;5.57;;;;;;;12.46;nan;102870.19;5052689;28;20473;-54
2022/04/17 07:12:23;;;;;;;6.78;5.75;;;;;;;12.98;nan;102858.25;5053049;28;20032;-56
2022/04/17 07:14:50;;;;;;;6.68;6.07;;;;;;;13.71;nan;102862.72;5050632;28;20045;-55
2022/04/17 07:17:15;;;;;;;8.45;5.50;;;;;;;13.90;nan;102865.06;5068015;28;20033;-53
2022/04/17 07:19:40;;;;;;;7.18;5.93;;;;;;;14.14;nan;102858.56;5052982;28;20037;-55
2022/04/17 07:22:06;;;;;;;6.57;5.97;;;;;;;14.03;nan;102815.47;5051467;28;20033;-55
2022/04/17 07:24:31;;;;;;;6.13;4.78;;;;;;;14.41;nan;102870.53;5052630;28;20127;-57
2022/04/17 07:26:58;;;;;;;5.50;5.00;;;;;;;14.54;nan;102856.16;5052083;28;20083;-55
2022/04/17 07:29:23;;;;;;;7.00;5.47;;;;;;;14.95;nan;102856.31;5052427;28;20033;-56
2022/04/17 07:31:53;;;;;;;5.70;5.10;;;;;;;14.51;nan;102755.53;5052646;28;20159;-57
2022/04/17 07:34:19;;;;;;;6.38;5.53;;;;;;;15.34;nan;102867.06;5052302;28;20036;-56
2022/04/17 07:36:47;;;;;;;6.40;5.40;;;;;;;15.48;nan;102801.34;5052710;28;20120;-54
2022/04/17 07:39:12;;;;;;;5.40;4.90;;;;;;;;;;5067015;28;20049;-58
2022/04/17 07:41:39;;;;;;;5.38;4.88;;;;;;;15.82;nan;102804.97;5051134;28;20071;-55
2022/04/17 07:44:05;;;;;;;5.75;5.05;;;;;;;16.57;nan;102844.81;5050109;28;20029;-55
2022/04/17 07:46:30;;;;;;;5.50;4.75;;;;;;;16.80;nan;102849.53;5051544;28;20044;-52
2022/04/17 07:48:56;;;;;;;7.85;5.75;;;;;;;16.09;nan;102726.41;5052120;28;20401;-56
2022/04/17 07:51:21;;;;;;;5.28;4.80;;;;;;;16.79;nan;102839.78;5067582;28;20119;-58
2022/04/17 07:53:47;;;;;;;5.65;5.10;;;;;;;17.00;nan;102835.69;5051594;28;20049;-55
2022/04/17 07:56:13;;;;;;;6.20;5.70;;;;;;;17.16;nan;102843.19;5066689;28;20056;-56
2022/04/17 07:58:39;;;;;;;6.78;5.22;;;;;;;17.45;nan;102845.03;5052034;28;20430;-56
2022/04/17 08:01:11;;;;;;;5.47;4.85;;;;;;;17.43;nan;102839.75;5052217;28;20036;-57
2022/04/17 08:06:06;;;;;;;4.93;4.45;;;;;;;17.67;nan;102792.91;5052136;28;20111;-58
2022/04/17 08:08:32;;;;;;;5.22;4.72;;;;;;;18.28;nan;102833.56;5052060;28;20029;-58
2022/04/17 08:10:58;;;;;;;6.38;5.18;;;;;;;18.05;nan;102781.03;5051596;28;20025;-54
2022/04/17 08:13:23;;;;;;;5.75;4.90;;;;;;;18.46;nan;102838.28;5051622;28;20548;-57
2022/04/17 08:15:50;;;;;;;5.53;5.03;;;;;;;18.16;nan;102786.88;5051798;28;20040;-58
2022/04/17 08:18:15;;;;;;;5.03;4.63;;;;;;;18.47;nan;102808.94;5050560;28;20041;-55
2022/04/17 08:20:41;;;;;;;5.93;5.32;;;;;;;18.78;nan;102803.41;5050839;28;20397;-54
2022/04/17 08:23:06;;;;;;;6.47;4.82;;;;;;;18.62;nan;102754.22;5051540;28;20033;-57
2022/04/17 08:25:33;;;;;;;5.07;4.60;;;;;;;19.05;nan;102797.09;5051758;28;20579;-55
2022/04/17 08:27:58;;;;;;;4.95;4.50;;;;;;;19.62;nan;102822.53;5051751;28;20033;-53
2022/04/17 08:30:25;;;;;;;6.43;5.80;;;;;;;19.42;nan;102814.41;5051830;28;20044;-56
2022/04/17 08:32:51;;;;;;;5.32;4.55;;;;;;;19.61;nan;102827.00;5050446;28;20444;-56
2022/04/17 08:35:17;;;;;;;4.75;4.18;;;;;;;19.75;nan;102821.16;5051092;28;20103;-56
2022/04/17 08:37:46;;;;;;;4.55;4.15;;;;;;;20.19;nan;102814.88;5066467;28;20396;-54
2022/04/17 08:40:13;;;;;;;4.93;4.50;;;;;;;19.99;nan;102804.09;5064857;28;20029;-56
2022/04/17 08:42:38;;;;;;;6.15;5.55;;;;;;;20.02;nan;102785.28;5051954;28;20062;-55
2022/04/17 08:45:04;;;;;;;5.00;4.60;;;;;;;20.38;nan;102774.00;5051619;28;20128;-58
2022/04/17 08:47:30;;;;;;;6.45;5.03;;;;;;;20.65;nan;102799.59;5051939;28;20497;-57
2022/04/17 08:49:56;;;;;;;5.20;4.75;;;;;;;21.05;nan;102758.50;5067053;28;20041;-58
2022/04/17 08:52:22;;;;;;;5.03;4.55;;;;;;;21.07;nan;102764.69;5050357;28;20035;-56
2022/04/17 08:54:51;;;;;;;5.75;4.70;;;;;;;20.89;nan;102757.47;5051653;28;20079;-58
2022/04/17 08:57:16;;;;;;;5.20;4.32;;;;;;;21.33;nan;102809.91;5067132;28;20029;-58
2022/04/17 08:59:42;;;;;;;4.50;4.07;;;;;;;21.53;nan;102806.31;5051603;28;20482;-59
2022/04/17 09:02:10;;;;;;;4.78;3.92;;;;;;;21.75;nan;102807.88;5051506;28;20394;-51
2022/04/17 09:04:37;;;;;;;4.60;4.20;;;;;;;21.72;nan;102804.47;5051427;28;20108;-58
2022/04/17 09:07:06;;;;;;;5.40;4.68;;;;;;;21.17;nan;102753.50;5051389;28;20040;-57
2022/04/17 09:09:31;;;;;;;4.57;4.18;;;;;;;21.43;nan;102800.50;5051260;28;20033;-58
2022/04/17 09:11:56;;;;;;;4.40;3.50;;;;;;;21.74;nan;102799.94;5067166;28;20056;-56
2022/04/17 09:14:22;;;;;;;4.40;4.00;;;;;;;21.73;nan;102744.56;5051523;28;20124;-60
2022/04/17 09:16:50;;;;;;;4.38;3.97;;;;;;;21.63;nan;102730.75;5049860;28;20048;-58
2022/04/17 09:19:17;;;;;;;4.47;4.07;;;;;;;22.01;nan;102734.25;5051397;28;20025;-56
2022/04/17 09:21:42;;;;;;;3.90;3.58;;;;;;;22.51;nan;102734.31;5066501;28;20054;-56
2022/04/17 09:24:37;;;;;;;4.93;4.30;;;;;;;22.89;nan;102786.03;5052954;28;20037;-57
2022/04/17 09:27:04;;;;;;;4.65;4.25;;;;;;;22.67;nan;102790.81;5040825;28;20041;-58
2022/04/17 09:29:35;;;;;;;5.15;4.25;;;;;;;22.81;nan;102764.97;5055229;28;20123;-57
2022/04/17 09:32:01;;;;;;;5.90;4.20;;;;;;;;;;5070278;28;20040;-56
2022/04/17 09:34:27;;;;;;;4.60;4.10;;;;;;;22.96;nan;102787.44;5054971;28;20029;-58
2022/04/17 09:37:02;;;;;;;4.20;3.88;;;;;;;22.86;nan;102783.50;5054986;28;20460;-58
2022/04/17 09:39:34;;;;;;;4.07;3.75;;;;;;;22.94;nan;102741.84;5054343;28;20033;-57
2022/04/17 09:42:03;;;;;;;5.03;4.07;;;;;;;23.60;nan;102757.06;5052400;28;20458;-60
2022/04/17 09:44:46;;;;;;;3.95;3.38;;;;;;;23.86;nan;102767.19;5053247;28;20047;-58
2022/04/17 09:47:14;;;;;;;4.15;3.78;;;;;;;23.89;nan;102716.78;5054561;28;20083;-58
2022/04/17 09:49:58;;;;;;;3.72;3.30;;;;;;;24.02;nan;102759.97;5053493;28;20443;-57
2022/04/17 09:52:25;;;;;;;4.13;3.83;;;;;;;23.88;nan;102751.81;5054612;28;20104;-57
2022/04/17 09:54:50;;;;;;;4.30;3.90;;;;;;;23.73;nan;102715.91;5054220;28;20045;-58
2022/04/17 09:57:29;;;;;;;3.80;3.40;;;;;;;23.95;nan;102694.03;5054141;28;20470;-58
2022/04/17 10:00:12;;;;;;;5.55;4.03;;;;;;;24.32;nan;102750.09;5053004;28;20398;-57
2022/04/17 10:02:38;;;;;;;4.28;3.97;;;;;;;24.62;nan;102739.31;5054320;28;20029;-59
2022/04/17 10:05:05;;;;;;;4.22;3.92;;;;;;;24.50;nan;102691.59;5054206;28;20532;-58
2022/04/17 10:07:31;;;;;;;5.40;4.20;;;;;;;24.75;nan;102710.63;5054231;28;20607;-59
2022/04/17 10:09:56;;;;;;;4.40;4.05;;;;;;;25.15;nan;102704.53;5054016;28;20373;-59
2022/04/17 10:12:22;;;;;;;5.20;4.60;;;;;;;24.95;nan;102675.28;5054381;28;20124;-60
2022/04/17 10:14:49;;;;;;;4.80;4.10;;;;;;;25.58;nan;102717.91;5054171;28;20469;-58
2022/04/17 10:17:21;;;;;;;5.13;4.50;;;;;;;25.62;nan;102728.41;5054211;28;20048;-59
2022/04/17 10:19:50;;;;;;;4.88;4.35;;;;;;;26.09;nan;102722.53;5054022;28;20024;-59
2022/04/17 10:22:23;;;;;;;4.60;4.20;;;;;;;26.22;nan;102723.44;5069341;28;20120;-58
2022/04/17 10:24:53;;;;;;;4.72;3.92;;;;;;;25.89;nan;102669.03;5054272;28;20041;-52
2022/04/17 10:27:32;;;;;;;4.53;4.13;;;;;;;25.72;nan;102712.47;5054096;28;20037;-56
2022/04/17 10:30:08;;;;;;;6.05;4.20;;;;;;;26.11;nan;102696.31;5052606;28;20102;-52
2022/04/17 10:32:53;;;;;;;4.30;3.90;;;;;;;26.12;nan;102698.00;5053769;28;20060;-52
2022/04/17 10:35:40;;;;;;;4.40;4.03;;;;;;;26.34;nan;102700.16;5068401;28;20061;-55
2022/04/17 10:38:25;;;;;;;4.90;4.40;;;;;;;26.73;nan;102708.16;5053535;28;20052;-51
2022/04/17 10:41:04;;;;;;;5.38;4.30;;;;;;;26.71;nan;102655.19;5053318;28;20178;-51
2022/04/17 10:43:36;;;;;;;6.30;4.97;;;;;;;26.42;nan;102675.28;5068638;28;20105;-52
2022/04/17 10:46:13;;;;;;;4.43;4.03;;;;;;;26.43;nan;102686.00;5068360;28;20437;-50
2022/04/17 10:48:43;;;;;;;4.35;3.95;;;;;;;26.75;nan;102684.59;5032931;28;20084;-50
2022/04/17 10:51:27;;;;;;;4.00;3.60;;;;;;;26.67;nan;102686.97;5033404;28;20128;-53
2022/04/17 10:54:00;;;;;;;4.15;3.85;;;;;;;26.53;nan;102678.97;5031987;28;20509;-51
2022/04/17 10:56:26;;;;;;;5.28;4.32;;;;;;;26.49;nan;102669.38;5031980;28;20037;-52
2022/04/17 10:58:56;;;;;;;3.78;3.30;;;;;;;26.60;nan;102610.03;5033313;28;20059;-50
2022/04/17 11:01:40;;;;;;;3.72;3.42;;;;;;;27.36;nan;102648.56;5033298;28;20033;-54
2022/04/17 11:04:24;;;;;;;6.25;4.07;;;;;;;27.28;nan;102658.22;5031797;28;20034;-54
2022/04/17 11:07:05;;;;;;;3.75;3.25;;;;;;;27.34;nan;102603.69;5031900;28;20025;-49
2022/04/17 11:09:36;;;;;;;4.53;3.90;;;;;;;27.23;nan;102615.28;5032949;28;20390;-53
2022/04/17 11:12:10;;;;;;;3.80;3.50;;;;;;;27.52;nan;102650.16;5031798;28;20091;-49
2022/04/17 11:14:36;;;;;;;3.30;3.00;;;;;;;27.81;nan;102646.09;5033312;28;20030;-51
2022/04/17 11:17:08;;;;;;;3.80;3.15;;;;;;;27.92;nan;102590.16;5031722;28;20442;-53
2022/04/17 11:19:35;;;;;;;3.30;3.10;;;;;;;27.54;nan;102589.56;5031611;28;20043;-55
2022/04/17 11:22:04;;;;;;;3.45;3.15;;;;;;;28.01;nan;102631.03;5032441;28;20050;-55
2022/04/17 11:24:55;;;;;;;3.30;3.00;;;;;;;28.11;nan;102626.69;5032895;28;20033;-48
2022/04/17 11:27:42;;;;;;;2.90;2.70;;;;;;;28.24;nan;102617.44;5032920;28;20040;-48
2022/04/17 11:30:13;;;;;;;4.40;3.47;;;;;;;28.10;nan;102620.38;5032644;28;20064;-55
2022/04/17 11:32:39;;;;;;;3.40;3.10;;;;;;;28.84;nan;102617.09;5032572;28;20545;-54
2022/04/17 11:35:06;;;;;;;4.65;2.92;;;;;;;28.22;nan;102577.94;5032315;28;20108;-47
2022/04/17 11:37:32;;;;;;;3.40;3.10;;;;;;;28.36;nan;102599.38;5047882;28;20029;-52
2022/04/17 11:40:07;;;;;;;3.28;3.03;;;;;;;28.33;nan;102554.44;5032369;28;20496;-51
2022/04/17 11:42:40;;;;;;;7.13;3.65;;;;;;;28.51;nan;102571.06;5032154;28;20038;-53
2022/04/17 11:45:06;;;;;;;5.25;3.53;;;;;;;28.54;nan;102594.31;5014565;28;20053;-52
2022/04/17 11:47:38;;;;;;;4.45;3.35;;;;;;;28.74;nan;102593.59;5032035;28;20059;-50
2022/04/17 11:50:06;;;;;;;5.55;4.47;;;;;;;28.57;nan;102586.81;5032168;28;20037;-52
2022/04/17 11:52:31;;;;;;;5.30;3.40;;;;;;;28.51;nan;102543.97;5032217;28;20494;-49
2022/04/17 11:54:59;;;;;;;4.03;3.72;;;;;;;28.52;nan;102577.34;5032126;28;20065;-53
2022/04/17 11:57:25;;;;;;;3.92;3.63;;;;;;;28.59;nan;102574.00;5031994;28;20480;-50
2022/04/17 11:59:55;;;;;;;4.32;3.60;;;;;;;28.35;nan;102566.00;5032101;28;20112;-53
2022/04/17 12:02:22;;;;;;;3.90;3.60;;;;;;;28.70;nan;102522.53;5030744;28;20082;-56
2022/04/17 12:04:49;;;;;;;4.82;3.80;;;;;;;29.22;nan;102553.44;5031879;28;20413;-57